Time;durP1;ratioP1;P1;durP2;ratioP2;P2;SDS_P1;SDS_P2;PMS_P1;PMS_P2;Temp;Humidity;BMP_temperature;BMP_pressure;BME280_temperature;BME280_humidity;BME280_pressure;Samples;Min_cycle;Max_cycle;Signal;HPM_P1;HPM_P2
2024/02/25 00:01:37;;;;;;;8.33;6.73;;;3.50;91.30;;;;;;6280759;28;20957;-64
2024/02/25 00:04:47;;;;;;;7.67;5.70;;;3.50;91.30;;;;;;6266455;28;20474;-64
2024/02/25 00:08:01;;;;;;;8.37;6.93;;;3.40;91.50;;;;;;6251751;28;20454;-65
2024/02/25 00:14:29;;;;;;;8.70;5.53;;;3.40;91.50;;;;;;6275917;28;20497;-64
2024/02/25 00:17:48;;;;;;;12.17;5.90;;;3.30;91.50;;;;;;6276109;28;20487;-65
2024/02/25 00:20:55;;;;;;;8.30;6.10;;;3.30;91.60;;;;;;6275724;28;20895;-65
2024/02/25 00:24:10;;;;;;;9.27;5.77;;;3.30;91.60;;;;;;6276865;28;20540;-65
2024/02/25 00:27:17;;;;;;;9.70;6.60;;;3.20;91.50;;;;;;6276766;28;20450;-64
2024/02/25 00:30:24;;;;;;;11.90;6.73;;;3.20;92.20;;;;;;6276389;28;20476;-64
2024/02/25 00:33:41;;;;;;;7.73;6.93;;;3.20;92.10;;;;;;6275492;28;20598;-64
2024/02/25 00:36:48;;;;;;;13.60;7.30;;;3.30;92.70;;;;;;6260782;28;20486;-64
2024/02/25 00:39:56;;;;;;;11.47;7.17;;;3.20;92.50;;;;;;6272835;28;20537;-64
2024/02/25 00:43:00;;;;;;;9.40;7.00;;;3.20;93.00;;;;;;6275341;28;20458;-70
2024/02/25 00:46:14;;;;;;;7.53;6.20;;;3.20;92.50;;;;;;6274426;28;20489;-68
2024/02/25 00:49:28;;;;;;;7.50;5.70;;;3.20;92.30;;;;;;6273814;28;20461;-65
2024/02/25 00:52:38;;;;;;;6.87;6.00;;;3.10;92.10;;;;;;6274183;28;20563;-68
2024/02/25 00:55:42;;;;;;;7.43;6.63;;;3.00;91.90;;;;;;6274478;28;20527;-72
2024/02/25 00:58:48;;;;;;;12.93;6.53;;;3.00;91.80;;;;;;6274504;28;20455;-69
2024/02/25 01:01:56;;;;;;;7.53;5.87;;;2.90;91.70;;;;;;6266848;28;20954;-72
2024/02/25 01:05:07;;;;;;;6.77;4.83;;;2.90;91.60;;;;;;6275565;28;20612;-65
2024/02/25 01:08:15;;;;;;;10.10;6.40;;;2.80;91.70;;;;;;6275152;28;20466;-64
2024/02/25 01:11:33;;;;;;;10.70;6.73;;;2.80;92.00;;;;;;6274708;28;20899;-67
2024/02/25 01:14:41;;;;;;;10.83;6.20;;;2.80;91.80;;;;;;6258145;28;20512;-69
2024/02/25 01:17:46;;;;;;;7.77;6.03;;;2.80;91.90;;;;;;6273215;28;20791;-65
2024/02/25 01:21:08;;;;;;;6.17;5.20;;;2.70;91.90;;;;;;6273982;28;20854;-65
2024/02/25 01:27:37;;;;;;;6.63;5.67;;;2.70;92.10;;;;;;6273298;28;20547;-64
2024/02/25 01:30:42;;;;;;;8.33;6.90;;;2.70;92.90;;;;;;6271638;28;20473;-64
2024/02/25 01:37:11;;;;;;;10.57;6.07;;;2.80;93.00;;;;;;6273178;28;20868;-64
2024/02/25 01:40:19;;;;;;;8.50;6.17;;;2.80;93.00;;;;;;6273023;28;20439;-67
2024/02/25 01:43:33;;;;;;;7.43;5.57;;;2.70;93.00;;;;;;6274118;28;20457;-65
2024/02/25 01:46:48;;;;;;;14.10;6.10;;;2.70;93.00;;;;;;6273848;28;20466;-72
2024/02/25 01:50:03;;;;;;;6.30;5.23;;;2.70;92.90;;;;;;6273870;28;20521;-65
2024/02/25 01:53:20;;;;;;;8.43;6.00;;;2.70;92.80;;;;;;6274221;28;20544;-64
2024/02/25 01:56:31;;;;;;;8.23;5.50;;;2.60;92.80;;;;;;6274007;28;20508;-64
2024/02/25 01:59:37;;;;;;;7.70;6.27;;;2.60;92.80;;;;;;6272270;28;20462;-65
2024/02/25 02:02:42;;;;;;;6.03;5.27;;;2.60;92.80;;;;;;6272196;28;20447;-65
2024/02/25 02:05:49;;;;;;;7.90;5.47;;;2.50;92.60;;;;;;6272819;28;20844;-70
2024/02/25 02:09:04;;;;;;;5.30;4.80;;;2.50;92.50;;;;;;6272161;28;20520;-65
2024/02/25 02:12:14;;;;;;;6.03;5.23;;;2.50;92.40;;;;;;6273661;28;20446;-65
2024/02/25 02:15:29;;;;;;;7.10;5.20;;;2.40;92.30;;;;;;6273101;28;20957;-66
2024/02/25 02:18:34;;;;;;;6.27;5.67;;;2.40;92.30;;;;;;6272523;28;20482;-64
2024/02/25 02:21:47;;;;;;;10.43;5.63;;;2.30;92.10;;;;;;6272546;28;20783;-70
2024/02/25 02:25:02;;;;;;;7.10;5.00;;;2.30;92.60;;;;;;6257020;28;20482;-64
2024/02/25 02:28:09;;;;;;;10.40;6.57;;;2.30;93.10;;;;;;6270427;28;20499;-70
2024/02/25 02:31:19;;;;;;;6.83;5.10;;;2.30;93.20;;;;;;6268760;28;20462;-64
2024/02/25 02:34:28;;;;;;;6.83;6.13;;;2.30;93.20;;;;;;6269685;28;20474;-65
2024/02/25 02:37:38;;;;;;;7.40;5.40;;;2.30;93.10;;;;;;6271620;28;20805;-64
2024/02/25 02:40:46;;;;;;;9.83;6.07;;;2.30;93.10;;;;;;6268998;28;20968;-64
2024/02/25 02:43:58;;;;;;;9.63;6.03;;;2.30;93.00;;;;;;6271802;28;20438;-65
2024/02/25 02:47:17;;;;;;;6.60;5.40;;;2.20;92.90;;;;;;6271246;28;20767;-64
2024/02/25 02:50:34;;;;;;;6.23;4.90;;;2.20;92.90;;;;;;6265171;28;20490;-66
2024/02/25 02:53:45;;;;;;;8.87;6.67;;;2.20;92.80;;;;;;6269478;28;20796;-66
2024/02/25 02:56:57;;;;;;;7.77;6.50;;;2.10;92.70;;;;;;6271340;28;20557;-65
2024/02/25 03:00:15;;;;;;;7.03;6.33;;;2.10;92.60;;;;;;6271055;28;20942;-65
2024/02/25 03:03:21;;;;;;;6.47;5.40;;;2.10;92.50;;;;;;6272220;28;20449;-65
2024/02/25 03:06:35;;;;;;;6.20;5.27;;;2.00;92.40;;;;;;6271898;28;20466;-66
2024/02/25 03:09:43;;;;;;;7.90;6.00;;;2.00;92.40;;;;;;6272091;28;20435;-66
2024/02/25 03:12:53;;;;;;;6.17;5.03;;;2.00;92.80;;;;;;6271743;28;20454;-65
2024/02/25 03:16:03;;;;;;;5.63;5.13;;;2.00;93.30;;;;;;6270981;28;20545;-66
2024/02/25 03:19:09;;;;;;;5.63;5.10;;;1.90;93.20;;;;;;6272183;28;20487;-65
2024/02/25 03:22:21;;;;;;;6.33;5.73;;;1.90;93.20;;;;;;6272899;28;20442;-65
2024/02/25 03:25:33;;;;;;;7.87;5.90;;;2.00;93.90;;;;;;6264176;28;20609;-65
2024/02/25 03:28:53;;;;;;;12.47;6.37;;;1.90;93.80;;;;;;6272119;28;20498;-66
2024/02/25 03:32:12;;;;;;;8.77;6.43;;;2.00;94.20;;;;;;6271728;28;20795;-66
2024/02/25 03:35:22;;;;;;;8.40;6.53;;;2.00;94.20;;;;;;6271856;28;20536;-66
2024/02/25 03:38:27;;;;;;;9.33;5.60;;;2.10;94.20;;;;;;6269852;28;20820;-66
2024/02/25 03:41:48;;;;;;;4.67;4.23;;;2.00;94.00;;;;;;6268745;28;20469;-66
2024/02/25 03:44:55;;;;;;;7.70;4.83;;;2.00;93.90;;;;;;6271299;28;20474;-66
2024/02/25 03:48:13;;;;;;;5.90;4.60;;;2.00;93.60;;;;;;6271365;28;20438;-66
2024/02/25 03:51:20;;;;;;;6.77;4.80;;;1.90;93.50;;;;;;6269944;28;20446;-66
2024/02/25 03:54:29;;;;;;;9.70;5.33;;;1.90;93.30;;;;;;6271321;28;20469;-65
2024/02/25 03:57:41;;;;;;;8.17;6.10;;;1.80;93.20;;;;;;6271327;28;20478;-66
2024/02/25 04:00:49;;;;;;;6.83;5.30;;;1.80;93.50;;;;;;6274428;28;20457;-65
2024/02/25 04:03:54;;;;;;;5.80;5.20;;;1.70;93.90;;;;;;6275933;28;20587;-66
2024/02/25 04:07:03;;;;;;;5.10;4.60;;;1.70;94.50;;;;;;6275356;28;20443;-65
2024/02/25 04:10:14;;;;;;;5.27;4.77;;;1.80;94.50;;;;;;6275273;28;20875;-66
2024/02/25 04:13:36;;;;;;;7.27;5.30;;;1.70;94.40;;;;;;6275602;28;20772;-66
2024/02/25 04:16:45;;;;;;;6.07;4.53;;;1.80;94.30;;;;;;6273376;28;20562;-65
2024/02/25 04:19:54;;;;;;;5.33;4.90;;;1.80;94.00;;;;;;6275293;28;21114;-65
2024/02/25 04:23:07;;;;;;;6.13;5.53;;;1.70;93.90;;;;;;6275667;28;20453;-65
2024/02/25 04:26:14;;;;;;;6.67;4.93;;;1.70;93.80;;;;;;6275432;28;20914;-66
2024/02/25 04:29:27;;;;;;;6.10;4.87;;;1.70;93.70;;;;;;6275365;28;20592;-65
2024/02/25 04:32:46;;;;;;;5.90;4.40;;;1.70;93.50;;;;;;6274841;28;20442;-65
2024/02/25 04:39:14;;;;;;;8.03;5.87;;;1.60;93.40;;;;;;6274377;28;20954;-66
2024/02/25 04:42:28;;;;;;;5.97;4.63;;;1.60;93.40;;;;;;6275451;28;20538;-66
2024/02/25 04:45:35;;;;;;;11.03;4.87;;;1.60;93.30;;;;;;6278234;28;21002;-66
2024/02/25 04:48:43;;;;;;;7.53;6.00;;;1.60;93.30;;;;;;6273599;28;20442;-65
2024/02/25 04:51:55;;;;;;;6.27;5.30;;;1.60;93.20;;;;;;6274683;28;20470;-64
2024/02/25 04:55:27;;;;;;;5.10;4.60;;;1.60;93.20;;;;;;6275544;28;20996;-66
2024/02/25 04:58:35;;;;;;;6.10;4.40;;;1.60;93.20;;;;;;6275486;28;20561;-66
2024/02/25 05:01:48;;;;;;;4.50;4.10;;;1.50;93.10;;;;;;6274573;28;20797;-66
2024/02/25 05:04:58;;;;;;;7.33;4.97;;;1.50;93.20;;;;;;6274779;28;20466;-65
2024/02/25 05:08:07;;;;;;;8.10;6.53;;;1.50;93.20;;;;;;6274510;28;20437;-65
2024/02/25 05:11:13;;;;;;;9.53;8.10;;;1.50;93.30;;;;;;6275056;28;20886;-65
2024/02/25 05:14:20;;;;;;;9.00;7.10;;;1.50;93.60;;;;;;6277185;28;20454;-65
2024/02/25 05:17:42;;;;;;;7.00;6.30;;;1.50;93.80;;;;;;6279894;28;20891;-65
2024/02/25 05:20:59;;;;;;;6.43;5.37;;;1.50;93.90;;;;;;6280608;28;20652;-64
2024/02/25 05:24:16;;;;;;;6.00;5.10;;;1.60;94.00;;;;;;6274212;28;20884;-65
2024/02/25 05:27:29;;;;;;;6.10;5.40;;;1.50;93.90;;;;;;6274522;28;20438;-65
2024/02/25 05:30:55;;;;;;;8.50;4.97;;;1.60;94.00;;;;;;6275355;28;20423;-65
2024/02/25 05:34:29;;;;;;;9.90;5.20;;;1.60;93.90;;;;;;6273946;28;20470;-65
2024/02/25 05:37:43;;;;;;;6.30;4.93;;;1.50;93.80;;;;;;6273473;28;20801;-65
2024/02/25 05:40:51;;;;;;;6.23;4.27;;;1.50;94.10;;;;;;6274031;28;20454;-66
2024/02/25 05:43:58;;;;;;;5.97;4.80;;;1.50;93.80;;;;;;6255665;28;20462;-67
2024/02/25 05:47:14;;;;;;;5.33;4.80;;;1.50;93.70;;;;;;6258135;28;20495;-66
2024/02/25 05:50:24;;;;;;;5.47;4.97;;;1.50;93.70;;;;;;6273189;28;20453;-66
2024/02/25 05:56:56;;;;;;;7.20;6.10;;;1.60;93.90;;;;;;6273274;28;20495;-66
2024/02/25 06:00:04;;;;;;;12.70;8.50;;;1.70;94.00;;;;;;6273608;28;20522;-66
2024/02/25 06:03:15;;;;;;;12.43;8.83;;;1.80;94.20;;;;;;6273271;28;20447;-66
2024/02/25 06:06:36;;;;;;;9.60;7.70;;;1.90;94.40;;;;;;6272927;28;20482;-66
2024/02/25 06:09:48;;;;;;;12.47;8.43;;;2.10;94.80;;;;;;6272980;28;20889;-66
2024/02/25 06:13:07;;;;;;;31.80;17.70;;;2.50;95.40;;;;;;6272882;28;20442;-66
2024/02/25 06:16:22;;;;;;;30.83;15.73;;;3.00;96.10;;;;;;6273346;28;20462;-66
2024/02/25 06:19:38;;;;;;;15.40;9.17;;;3.50;96.90;;;;;;6252033;28;20475;-66
2024/02/25 06:22:50;;;;;;;8.23;6.40;;;4.40;96.90;;;;;;6247707;28;20569;-65
2024/02/25 06:26:07;;;;;;;17.43;10.83;;;4.90;94.00;;;;;;6248559;28;20499;-65
2024/02/25 06:29:16;;;;;;;16.50;9.30;;;5.10;92.90;;;;;;6248001;28;20448;-66
2024/02/25 06:32:25;;;;;;;17.13;11.33;;;5.20;92.40;;;;;;6247988;28;20570;-65
2024/02/25 06:35:33;;;;;;;32.73;16.47;;;5.40;92.10;;;;;;6269401;28;20584;-66
2024/02/25 06:38:52;;;;;;;24.83;14.33;;;5.70;90.80;;;;;;6267161;28;20479;-65
2024/02/25 06:42:02;;;;;;;17.40;11.40;;;6.10;88.50;;;;;;6248471;28;20447;-66
2024/02/25 06:45:11;;;;;;;11.33;6.43;;;6.60;86.70;;;;;;6247661;28;20464;-66
2024/02/25 06:48:27;;;;;;;6.70;5.40;;;7.80;85.80;;;;;;6267333;28;20446;-67
2024/02/25 06:51:36;;;;;;;13.63;7.47;;;9.10;81.00;;;;;;6272041;28;20466;-65
2024/02/25 06:54:52;;;;;;;11.47;6.87;;;9.80;75.10;;;;;;6272061;28;20458;-65
2024/02/25 06:58:00;;;;;;;8.70;6.30;;;10.30;73.10;;;;;;6271516;28;20882;-66
2024/02/25 07:01:08;;;;;;;9.87;7.87;;;11.00;71.20;;;;;;6272091;28;20479;-67
2024/02/25 07:04:15;;;;;;;8.13;6.83;;;11.70;68.20;;;;;;6303779;28;20950;-67
2024/02/25 07:07:25;;;;;;;7.30;4.93;;;12.40;65.20;;;;;;6272769;28;20732;-67
2024/02/25 07:10:40;;;;;;;7.93;7.13;;;13.00;64.20;;;;;;6271958;28;20771;-67
2024/02/25 07:13:51;;;;;;;6.80;6.20;;;13.40;61.00;;;;;;6272196;28;20488;-67
2024/02/25 07:16:58;;;;;;;6.53;5.90;;;14.00;60.00;;;;;;6271800;28;20474;-66
2024/02/25 07:20:18;;;;;;;8.03;6.77;;;14.50;58.10;;;;;;6272824;28;20478;-66
2024/02/25 07:23:25;;;;;;;16.00;12.80;;;15.00;56.80;;;;;;6272546;28;20450;-66
2024/02/25 07:26:30;;;;;;;12.20;8.27;;;15.80;55.40;;;;;;6272413;28;20463;-67
2024/02/25 07:29:45;;;;;;;9.27;6.13;;;16.60;53.50;;;;;;6271590;28;20899;-67
2024/02/25 07:32:53;;;;;;;6.43;5.83;;;17.70;51.80;;;;;;6272048;28;20445;-68
2024/02/25 07:36:08;;;;;;;7.70;6.90;;;18.90;49.80;;;;;;6260875;28;20501;-66
2024/02/25 07:39:19;;;;;;;7.00;5.53;;;19.50;48.00;;;;;;6251275;28;20681;-67
2024/02/25 07:42:28;;;;;;;7.60;5.50;;;20.10;46.90;;;;;;6260409;28;20204;-67
2024/02/25 07:45:35;;;;;;;7.57;6.73;;;21.30;45.60;;;;;;6276764;28;20223;-67
2024/02/25 07:48:49;;;;;;;5.93;5.43;;;23.00;43.40;;;;;;6276208;28;20196;-67
2024/02/25 07:55:28;;;;;;;6.30;5.20;;;26.80;38.00;;;;;;6275800;28;20604;-67
2024/02/25 07:58:40;;;;;;;7.50;5.60;;;27.40;35.80;;;;;;6276350;28;20316;-66
2024/02/25 08:01:46;;;;;;;6.47;5.87;;;27.50;34.90;;;;;;6277068;28;20199;-67
2024/02/25 08:05:08;;;;;;;5.03;4.63;;;27.60;34.50;;;;;;6275869;28;20597;-66
2024/02/25 08:08:15;;;;;;;5.37;4.87;;;28.20;33.70;;;;;;6275825;28;20207;-66
2024/02/25 08:11:35;;;;;;;6.20;5.60;;;28.30;33.40;;;;;;6275734;28;20685;-67
2024/02/25 08:14:57;;;;;;;5.33;4.93;;;28.50;32.50;;;;;;6276041;28;20227;-66
2024/02/25 08:18:08;;;;;;;6.00;5.50;;;28.70;32.20;;;;;;6273061;28;20661;-67
2024/02/25 08:21:19;;;;;;;6.33;5.37;;;28.60;32.50;;;;;;6274513;28;20227;-67
2024/02/25 08:24:31;;;;;;;5.37;4.87;;;28.40;31.80;;;;;;6274492;28;20260;-67
2024/02/25 08:27:42;;;;;;;5.67;4.90;;;29.00;31.80;;;;;;6274682;28;20207;-67
2024/02/25 08:30:52;;;;;;;5.10;4.60;;;29.60;30.70;;;;;;6272508;28;20377;-66
2024/02/25 08:33:56;;;;;;;6.20;5.60;;;30.10;30.00;;;;;;6248434;28;20215;-68
2024/02/25 08:37:07;;;;;;;5.63;4.83;;;30.70;29.30;;;;;;6246926;28;20215;-67
2024/02/25 08:40:16;;;;;;;5.03;4.53;;;30.80;29.10;;;;;;6269737;28;20231;-67
2024/02/25 08:43:26;;;;;;;6.23;5.73;;;30.90;28.90;;;;;;6274803;28;20225;-68
2024/02/25 08:46:43;;;;;;;4.97;4.47;;;31.00;28.40;;;;;;6275111;28;20301;-67
2024/02/25 08:49:53;;;;;;;7.32;5.35;;;31.00;28.50;;;;;;6275274;28;20615;-66
2024/02/25 08:53:00;;;;;;;4.82;4.43;;;31.00;28.20;;;;;;6274439;28;20239;-67
2024/02/25 08:56:07;;;;;;;4.68;4.28;;;31.40;27.70;;;;;;6275539;28;20227;-67
2024/02/25 08:59:10;;;;;;;6.22;5.05;;;31.30;27.40;;;;;;6274277;28;20213;-68
2024/02/25 09:02:43;;;;;;;5.07;4.57;;;31.20;27.50;;;;;;6274513;28;20211;-68
2024/02/25 09:05:58;;;;;;;5.18;4.78;;;31.00;27.50;;;;;;6274566;28;20215;-67
2024/02/25 09:09:09;;;;;;;5.07;4.57;;;30.90;27.50;;;;;;6273830;28;20207;-67
2024/02/25 09:12:31;;;;;;;4.85;4.43;;;31.50;27.30;;;;;;6278995;28;20572;-67
2024/02/25 09:15:40;;;;;;;6.20;5.00;;;32.20;27.20;;;;;;6288177;28;20219;-67
2024/02/25 09:19:02;;;;;;;4.45;4.05;;;32.90;26.10;;;;;;6289893;28;20212;-68
2024/02/25 09:22:18;;;;;;;3.75;3.45;;;33.30;25.50;;;;;;6294408;28;20215;-67
2024/02/25 09:25:37;;;;;;;4.38;3.38;;;34.00;25.00;;;;;;6294794;28;20225;-68
2024/02/25 09:28:42;;;;;;;4.05;3.47;;;34.60;24.30;;;;;;6293408;28;20205;-68
2024/02/25 09:31:52;;;;;;;6.85;4.50;;;34.70;23.90;;;;;;6301868;28;20217;-67
2024/02/25 09:35:01;;;;;;;5.13;4.63;;;33.90;24.20;;;;;;6293883;28;20302;-68
2024/02/25 09:38:07;;;;;;;4.18;3.78;;;32.80;24.70;;;;;;6297874;28;20312;-66
2024/02/25 09:41:12;;;;;;;4.25;3.95;;;32.00;25.20;;;;;;6291835;28;20259;-68
2024/02/25 09:44:26;;;;;;;4.88;3.50;;;31.50;25.50;;;;;;6298473;28;20309;-68
2024/02/25 09:47:34;;;;;;;3.53;3.22;;;31.00;25.90;;;;;;6298834;28;20734;-68
2024/02/25 09:50:48;;;;;;;4.17;3.67;;;30.00;26.50;;;;;;6298219;28;20675;-67
2024/02/25 09:53:57;;;;;;;4.33;3.70;;;28.90;27.50;;;;;;6322768;28;20279;-69
2024/02/25 09:57:21;;;;;;;3.90;3.20;;;27.90;28.20;;;;;;6319081;28;20205;-68
2024/02/25 10:00:38;;;;;;;4.60;3.77;;;27.10;28.80;;;;;;6319978;28;20198;-68
2024/02/25 10:03:45;;;;;;;5.50;3.70;;;26.20;29.60;;;;;;6321926;28;20194;-67
2024/02/25 10:06:58;;;;;;;3.73;3.33;;;25.20;30.40;;;;;;6321661;28;20186;-67
2024/02/25 10:10:02;;;;;;;3.50;2.80;;;24.30;31.30;;;;;;6320947;28;20187;-67
2024/02/25 10:13:05;;;;;;;5.13;3.20;;;23.20;32.90;;;;;;6321405;28;20201;-68
2024/02/25 10:16:15;;;;;;;5.53;3.47;;;22.40;34.20;;;;;;6321574;28;20222;-68
2024/02/25 10:19:18;;;;;;;3.17;2.73;;;22.60;34.50;;;;;;6320281;28;20515;-67
2024/02/25 10:22:25;;;;;;;3.53;3.20;;;22.90;34.50;;;;;;6321727;28;20233;-68
2024/02/25 10:25:38;;;;;;;3.50;2.40;;;22.50;34.90;;;;;;6321257;28;20230;-67
2024/02/25 10:28:53;;;;;;;3.97;2.90;;;22.50;34.40;;;;;;6320998;28;20293;-67
2024/02/25 10:35:31;;;;;;;4.10;3.00;;;23.10;34.60;;;;;;6318800;28;20218;-67
2024/02/25 10:38:45;;;;;;;2.93;2.73;;;24.30;34.20;;;;;;6320419;28;20222;-68
2024/02/25 10:41:55;;;;;;;4.63;3.23;;;24.70;34.00;;;;;;6319858;28;20222;-67
2024/02/25 10:45:09;;;;;;;3.30;2.77;;;27.90;30.80;;;;;;6322465;28;20214;-67
2024/02/25 10:48:23;;;;;;;3.00;2.70;;;28.60;29.40;;;;;;6318389;28;20202;-68
2024/02/25 10:51:30;;;;;;;2.60;1.93;;;29.80;28.20;;;;;;6318185;28;20352;-68
2024/02/25 10:54:48;;;;;;;2.23;1.97;;;29.90;27.60;;;;;;6304302;28;20209;-68
2024/02/25 10:58:16;;;;;;;3.10;2.00;;;29.20;28.20;;;;;;6321308;28;20194;-68
2024/02/25 11:01:28;;;;;;;3.63;2.17;;;26.10;31.00;;;;;;6321625;28;20348;-67
2024/02/25 11:04:34;;;;;;;3.67;1.90;;;24.90;33.50;;;;;;6319866;28;20225;-67
2024/02/25 11:07:45;;;;;;;3.80;2.40;;;24.40;33.70;;;;;;6326009;28;20190;-67
2024/02/25 11:11:12;;;;;;;4.00;2.00;;;22.90;35.40;;;;;;6325339;28;20190;-67
2024/02/25 11:14:21;;;;;;;2.50;1.97;;;21.80;37.30;;;;;;6325003;28;20218;-67
2024/02/25 11:17:32;;;;;;;2.27;2.00;;;22.60;36.60;;;;;;6312933;28;20202;-67
2024/02/25 11:20:50;;;;;;;2.60;2.17;;;22.80;36.50;;;;;;6325265;28;20230;-67
2024/02/25 11:24:03;;;;;;;2.80;2.30;;;22.50;36.30;;;;;;6324617;28;20266;-68
2024/02/25 11:27:17;;;;;;;2.40;2.20;;;22.40;36.50;;;;;;6323790;28;20199;-67
2024/02/25 11:30:36;;;;;;;4.93;2.70;;;22.10;37.50;;;;;;6325661;28;20531;-67
2024/02/25 11:33:41;;;;;;;8.03;6.87;;;21.20;38.70;;;;;;6324830;28;20540;-67
2024/02/25 11:36:54;;;;;;;4.33;2.83;;;22.90;38.40;;;;;;6320308;28;20567;-67
2024/02/25 11:40:09;;;;;;;3.20;2.93;;;23.90;36.40;;;;;;6325290;28;20210;-66
2024/02/25 11:43:19;;;;;;;4.13;2.97;;;24.60;35.00;;;;;;6321415;28;20198;-67
2024/02/25 11:46:28;;;;;;;2.93;2.73;;;25.40;34.90;;;;;;6324386;28;20246;-68
2024/02/25 11:49:46;;;;;;;4.77;3.87;;;23.80;34.60;;;;;;6296376;28;20216;-72
2024/02/25 11:53:03;;;;;;;6.90;5.10;;;24.40;35.60;;;;;;6322593;28;20233;-67
2024/02/25 11:56:24;;;;;;;5.10;2.70;;;25.70;34.00;;;;;;6326453;28;20226;-67
2024/02/25 11:59:34;;;;;;;2.30;2.10;;;26.40;33.40;;;;;;6323857;28;20201;-70
2024/02/25 12:02:42;;;;;;;5.80;2.80;;;26.20;32.90;;;;;;6326518;28;20210;-69
2024/02/25 12:05:46;;;;;;;3.30;2.80;;;26.60;32.90;;;;;;6326434;28;20225;-67
2024/02/25 12:08:51;;;;;;;4.30;2.53;;;26.30;32.60;;;;;;6326561;28;20271;-69
2024/02/25 12:11:56;;;;;;;3.67;2.40;;;26.20;33.40;;;;;;6326412;28;20263;-68
2024/02/25 12:15:11;;;;;;;3.73;2.60;;;26.80;33.00;;;;;;6326251;28;20277;-69
2024/02/25 12:18:32;;;;;;;5.40;2.53;;;27.40;31.80;;;;;;6317448;28;20213;-69
2024/02/25 12:21:43;;;;;;;4.30;2.80;;;27.60;31.60;;;;;;6325455;28;20241;-68
2024/02/25 12:24:52;;;;;;;4.37;3.00;;;27.60;31.20;;;;;;6328398;28;20228;-66
2024/02/25 12:28:12;;;;;;;2.47;2.27;;;25.70;32.70;;;;;;6327845;28;20196;-65
2024/02/25 12:31:33;;;;;;;3.90;2.60;;;25.20;34.00;;;;;;6326169;28;20198;-68
2024/02/25 12:34:41;;;;;;;2.90;2.60;;;23.70;35.90;;;;;;6326859;28;20237;-66
2024/02/25 12:37:55;;;;;;;2.37;2.17;;;23.70;37.00;;;;;;6326338;28;20210;-68
2024/02/25 12:41:04;;;;;;;2.80;2.30;;;23.00;36.80;;;;;;6325329;28;20355;-67
2024/02/25 12:44:12;;;;;;;3.30;2.80;;;23.50;37.00;;;;;;6326078;28;20406;-67
2024/02/25 12:47:17;;;;;;;2.73;2.50;;;23.00;36.70;;;;;;6325332;28;20619;-67
2024/02/25 12:50:31;;;;;;;2.93;2.27;;;22.70;38.20;;;;;;6325221;28;20210;-67
2024/02/25 12:53:38;;;;;;;4.03;3.03;;;22.50;37.30;;;;;;6324634;28;20757;-69
2024/02/25 12:56:44;;;;;;;4.87;2.47;;;21.50;39.50;;;;;;6319382;28;20232;-67
2024/02/25 13:00:00;;;;;;;3.33;2.67;;;21.30;39.20;;;;;;6325352;28;20210;-64
2024/02/25 13:03:23;;;;;;;2.20;1.93;;;21.40;39.30;;;;;;6325809;28;20202;-64
2024/02/25 13:06:32;;;;;;;3.13;2.30;;;21.00;39.40;;;;;;6331042;28;20282;-63
2024/02/25 13:09:38;;;;;;;2.97;2.13;;;20.50;41.10;;;;;;6334903;28;20202;-64
2024/02/25 13:12:46;;;;;;;2.53;2.17;;;20.20;41.20;;;;;;6325970;28;20203;-64
2024/02/25 13:15:55;;;;;;;3.07;1.90;;;20.20;41.10;;;;;;6326725;28;20360;-64
2024/02/25 13:19:11;;;;;;;3.10;2.20;;;20.40;41.40;;;;;;6325108;28;20606;-64
2024/02/25 13:22:18;;;;;;;3.87;2.40;;;20.80;41.00;;;;;;6325899;28;20614;-63
2024/02/25 13:25:25;;;;;;;3.10;2.03;;;21.20;40.50;;;;;;6326275;28;20222;-63
2024/02/25 13:28:38;;;;;;;5.20;2.57;;;20.60;40.10;;;;;;6327153;28;20644;-63
2024/02/25 13:31:52;;;;;;;3.87;2.40;;;20.10;41.00;;;;;;6324939;28;20301;-65
2024/02/25 13:35:13;;;;;;;3.83;2.10;;;19.10;42.40;;;;;;6326466;28;20236;-67
2024/02/25 13:38:17;;;;;;;2.33;2.13;;;19.10;42.50;;;;;;6323205;28;20354;-65
2024/02/25 13:41:25;;;;;;;2.87;1.70;;;19.30;42.60;;;;;;6323901;28;20239;-65
2024/02/25 13:44:32;;;;;;;4.33;2.00;;;19.20;42.50;;;;;;6324613;28;20222;-65
2024/02/25 13:47:39;;;;;;;3.40;2.27;;;19.50;42.60;;;;;;6324033;28;20238;-65
2024/02/25 13:50:52;;;;;;;4.37;2.53;;;19.70;42.50;;;;;;6324349;28;20675;-64
2024/02/25 13:57:29;;;;;;;2.07;1.20;;;20.10;41.70;;;;;;6324857;28;20263;-65
2024/02/25 14:00:36;;;;;;;2.93;1.73;;;20.00;39.70;;;;;;6324243;28;20190;-65
2024/02/25 14:03:45;;;;;;;4.57;2.20;;;19.90;40.90;;;;;;6323866;28;20215;-65
2024/02/25 14:06:57;;;;;;;2.03;1.50;;;19.40;42.40;;;;;;6324175;28;20226;-65
2024/02/25 14:10:06;;;;;;;3.83;1.30;;;18.60;40.20;;;;;;6315457;28;20215;-64
2024/02/25 14:13:12;;;;;;;2.10;1.37;;;16.50;43.30;;;;;;6317873;28;20194;-66
2024/02/25 14:16:16;;;;;;;2.20;1.07;;;15.50;45.20;;;;;;6323701;28;20824;-65
2024/02/25 14:19:20;;;;;;;1.80;1.30;;;15.30;46.20;;;;;;6324085;28;20459;-65
2024/02/25 14:22:50;;;;;;;1.20;0.93;;;15.40;45.70;;;;;;6323173;28;20476;-65
2024/02/25 14:25:56;;;;;;;2.80;1.00;;;15.50;45.70;;;;;;6322977;28;20460;-66
2024/02/25 14:29:03;;;;;;;1.50;1.00;;;15.40;45.80;;;;;;6323507;28;20459;-66
2024/02/25 14:32:18;;;;;;;3.20;1.10;;;15.40;46.00;;;;;;6306785;28;20432;-66
2024/02/25 14:35:22;;;;;;;1.33;0.80;;;15.20;45.10;;;;;;6323610;28;20905;-66
2024/02/25 14:38:36;;;;;;;2.10;1.10;;;15.10;45.40;;;;;;6322614;28;20460;-66
2024/02/25 14:41:48;;;;;;;2.93;1.10;;;14.90;44.80;;;;;;6323405;28;20463;-65
2024/02/25 14:44:56;;;;;;;2.73;0.93;;;14.60;44.70;;;;;;6322745;28;20479;-65
2024/02/25 14:48:13;;;;;;;3.17;0.90;;;14.20;44.80;;;;;;6323500;28;20444;-65
2024/02/25 14:51:23;;;;;;;1.80;1.00;;;13.70;45.70;;;;;;6323141;28;20456;-65
2024/02/25 14:54:51;;;;;;;1.87;1.00;;;13.40;46.90;;;;;;6323261;28;20457;-65
2024/02/25 14:57:56;;;;;;;4.07;1.50;;;13.20;47.60;;;;;;6322818;28;20436;-67
2024/02/25 15:01:00;;;;;;;3.37;1.30;;;13.30;48.00;;;;;;6323627;28;20443;-65
2024/02/25 15:04:07;;;;;;;1.90;1.37;;;13.30;48.00;;;;;;6323274;28;20492;-65
2024/02/25 15:07:18;;;;;;;1.50;1.10;;;13.30;48.50;;;;;;6322682;28;20448;-67
2024/02/25 15:10:40;;;;;;;1.33;1.00;;;13.50;48.70;;;;;;6323008;28;20449;-65
2024/02/25 15:13:48;;;;;;;1.90;1.03;;;13.40;48.60;;;;;;6323889;28;20486;-66
2024/02/25 15:16:53;;;;;;;1.53;1.20;;;13.40;49.00;;;;;;6323590;28;20531;-65
2024/02/25 15:20:00;;;;;;;3.93;1.20;;;13.40;49.10;;;;;;6323223;28;20453;-65
2024/02/25 15:23:13;;;;;;;4.40;1.70;;;13.50;49.30;;;;;;6324186;28;20468;-65
2024/02/25 15:26:30;;;;;;;1.97;1.07;;;13.30;49.00;;;;;;6308364;28;20940;-66
2024/02/25 15:29:38;;;;;;;1.37;1.03;;;13.20;49.70;;;;;;6323632;28;20471;-65
2024/02/25 15:32:43;;;;;;;1.67;1.07;;;13.30;49.40;;;;;;6322597;28;20904;-65
2024/02/25 15:36:00;;;;;;;1.53;1.27;;;13.20;50.00;;;;;;6323549;28;20475;-66
2024/02/25 15:39:19;;;;;;;3.87;1.20;;;13.00;50.10;;;;;;6317987;28;20806;-65
2024/02/25 15:42:33;;;;;;;1.50;1.40;;;13.00;50.40;;;;;;6316785;28;20472;-65
2024/02/25 15:45:52;;;;;;;1.73;1.10;;;12.90;50.70;;;;;;6319648;28;20773;-65
2024/02/25 15:48:58;;;;;;;4.67;1.10;;;12.80;51.00;;;;;;6317111;28;20452;-66
2024/02/25 15:52:10;;;;;;;1.83;1.13;;;12.50;51.00;;;;;;6320319;28;20488;-66
2024/02/25 15:55:27;;;;;;;2.07;1.20;;;12.30;51.70;;;;;;6318360;28;20499;-65
2024/02/25 15:58:43;;;;;;;2.30;0.97;;;12.30;52.00;;;;;;6326827;28;20474;-65
2024/02/25 16:01:59;;;;;;;4.43;1.27;;;12.20;52.00;;;;;;6320426;28;20452;-66
2024/02/25 16:05:18;;;;;;;2.40;1.60;;;12.10;52.30;;;;;;6326861;28;20968;-65
2024/02/25 16:08:28;;;;;;;7.20;1.37;;;12.10;52.70;;;;;;6310965;28;20476;-66
2024/02/25 16:11:43;;;;;;;2.40;1.60;;;12.00;52.90;;;;;;6327428;28;20444;-66
2024/02/25 16:15:18;;;;;;;1.93;1.27;;;12.10;53.30;;;;;;6333514;28;20539;-65
2024/02/25 16:18:32;;;;;;;1.90;1.23;;;12.00;54.00;;;;;;6312046;28;20460;-66
2024/02/25 16:21:38;;;;;;;5.07;4.17;;;11.90;54.20;;;;;;6327818;28;20447;-65
2024/02/25 16:24:50;;;;;;;1.23;1.13;;;11.90;54.20;;;;;;6322887;28;20544;-65
2024/02/25 16:27:59;;;;;;;2.13;1.60;;;11.80;54.30;;;;;;6318586;28;20449;-65
2024/02/25 16:31:13;;;;;;;2.87;1.50;;;11.70;54.80;;;;;;6323923;28;20444;-66
2024/02/25 16:34:21;;;;;;;2.40;1.80;;;11.60;55.10;;;;;;6322265;28;20598;-66
2024/02/25 16:37:35;;;;;;;1.83;1.50;;;11.50;56.20;;;;;;6325210;28;20483;-65
2024/02/25 16:40:52;;;;;;;2.30;1.93;;;11.40;55.80;;;;;;6316321;28;20927;-65
2024/02/25 16:44:13;;;;;;;3.03;1.90;;;11.30;56.40;;;;;;6311824;28;20520;-66
2024/02/25 16:47:26;;;;;;;1.90;1.80;;;11.10;56.70;;;;;;6326604;28;20517;-66
2024/02/25 16:50:53;;;;;;;2.60;1.90;;;11.10;57.10;;;;;;6316742;28;20453;-65
2024/02/25 16:54:07;;;;;;;3.60;2.27;;;10.90;57.40;;;;;;6321296;28;20500;-66
2024/02/25 16:57:17;;;;;;;2.43;2.00;;;10.90;57.90;;;;;;6324531;28;20445;-65
2024/02/25 17:00:32;;;;;;;3.27;1.83;;;10.80;58.10;;;;;;6325047;28;20640;-65
2024/02/25 17:03:41;;;;;;;1.60;1.50;;;10.80;58.40;;;;;;6325125;28;20473;-65
2024/02/25 17:06:51;;;;;;;2.30;1.53;;;10.70;58.60;;;;;;6323897;28;20613;-66
2024/02/25 17:10:01;;;;;;;1.97;1.80;;;10.60;58.90;;;;;;6325006;28;20460;-65